sensor_id;sensor_type;location;lat;lon;timestamp;temperature;humidity
18268;DHT22;9260;49.998;19.880;2023-07-09T00:07:00;9.20;99.90
18268;DHT22;9260;49.998;19.880;2023-07-09T00:17:09;8.80;99.90
18268;DHT22;9260;49.998;19.880;2023-07-09T00:37:20;8.90;99.90
18268;DHT22;9260;49.998;19.880;2023-07-09T00:47:34;8.90;99.90
18268;DHT22;9260;49.998;19.880;2023-07-09T00:57:46;8.70;99.90
18268;DHT22;9260;49.998;19.880;2023-07-09T01:07:58;8.60;99.90
18268;DHT22;9260;49.998;19.880;2023-07-09T01:18:03;8.60;99.90
18268;DHT22;9260;49.998;19.880;2023-07-09T01:28:09;8.40;99.90
18268;DHT22;9260;49.998;19.880;2023-07-09T01:38:12;8.20;99.90
18268;DHT22;9260;49.998;19.880;2023-07-09T01:48:19;8.00;99.90
18268;DHT22;9260;49.998;19.880;2023-07-09T01:58:26;7.90;99.90
18268;DHT22;9260;49.998;19.880;2023-07-09T02:08:34;8.00;99.90
18268;DHT22;9260;49.998;19.880;2023-07-09T02:18:37;7.90;99.90
18268;DHT22;9260;49.998;19.880;2023-07-09T02:28:42;7.80;99.90
18268;DHT22;9260;49.998;19.880;2023-07-09T02:48:51;7.70;99.90
18268;DHT22;9260;49.998;19.880;2023-07-09T03:09:01;8.00;99.90
18268;DHT22;9260;49.998;19.880;2023-07-09T03:39:14;8.60;99.90
18268;DHT22;9260;49.998;19.880;2023-07-09T03:49:19;9.00;99.90
18268;DHT22;9260;49.998;19.880;2023-07-09T03:59:22;9.30;99.90
18268;DHT22;9260;49.998;19.880;2023-07-09T04:19:31;10.20;99.90
18268;DHT22;9260;49.998;19.880;2023-07-09T04:29:36;10.70;99.90
18268;DHT22;9260;49.998;19.880;2023-07-09T04:39:40;11.40;99.90
18268;DHT22;9260;49.998;19.880;2023-07-09T04:49:45;12.10;99.90
18268;DHT22;9260;49.998;19.880;2023-07-09T05:09:54;13.30;99.90
18268;DHT22;9260;49.998;19.880;2023-07-09T05:19:58;13.90;99.90
18268;DHT22;9260;49.998;19.880;2023-07-09T05:30:03;14.60;99.90
18268;DHT22;9260;49.998;19.880;2023-07-09T05:40:08;15.50;99.90
18268;DHT22;9260;49.998;19.880;2023-07-09T06:00:17;17.10;99.90
18268;DHT22;9260;49.998;19.880;2023-07-09T06:10:22;18.10;99.90
18268;DHT22;9260;49.998;19.880;2023-07-09T06:20:26;18.80;99.90
18268;DHT22;9260;49.998;19.880;2023-07-09T06:30:31;19.50;99.90
18268;DHT22;9260;49.998;19.880;2023-07-09T06:50:40;20.80;99.90
18268;DHT22;9260;49.998;19.880;2023-07-09T07:00:43;21.80;99.90
18268;DHT22;9260;49.998;19.880;2023-07-09T07:10:49;22.30;99.90
18268;DHT22;9260;49.998;19.880;2023-07-09T07:20:53;22.90;99.90
18268;DHT22;9260;49.998;19.880;2023-07-09T07:41:02;24.20;99.90
18268;DHT22;9260;49.998;19.880;2023-07-09T07:51:07;24.70;99.90
18268;DHT22;9260;49.998;19.880;2023-07-09T08:21:20;27.50;99.90
18268;DHT22;9260;49.998;19.880;2023-07-09T08:31:26;29.30;99.90
18268;DHT22;9260;49.998;19.880;2023-07-09T08:41:35;31.60;99.90
18268;DHT22;9260;49.998;19.880;2023-07-09T08:51:42;36.30;99.90
18268;DHT22;9260;49.998;19.880;2023-07-09T09:01:47;40.20;99.90
18268;DHT22;9260;49.998;19.880;2023-07-09T09:11:59;42.30;99.90
18268;DHT22;9260;49.998;19.880;2023-07-09T09:22:09;44.50;99.90
18268;DHT22;9260;49.998;19.880;2023-07-09T09:42:23;48.00;80.60
18268;DHT22;9260;49.998;19.880;2023-07-09T10:02:38;50.30;53.90
18268;DHT22;9260;49.998;19.880;2023-07-09T10:12:46;51.30;37.40
18268;DHT22;9260;49.998;19.880;2023-07-09T10:22:54;52.50;34.60
18268;DHT22;9260;49.998;19.880;2023-07-09T10:33:04;53.10;27.00
18268;DHT22;9260;49.998;19.880;2023-07-09T10:43:13;50.70;27.00
18268;DHT22;9260;49.998;19.880;2023-07-09T10:53:24;52.20;34.90
18268;DHT22;9260;49.998;19.880;2023-07-09T11:03:35;49.90;27.00
18268;DHT22;9260;49.998;19.880;2023-07-09T11:13:43;51.00;41.00
18268;DHT22;9260;49.998;19.880;2023-07-09T11:23:54;42.20;26.10
18268;DHT22;9260;49.998;19.880;2023-07-09T11:34:07;41.00;47.00
18268;DHT22;9260;49.998;19.880;2023-07-09T11:44:12;43.10;85.40
18268;DHT22;9260;49.998;19.880;2023-07-09T11:54:20;42.00;82.50
18268;DHT22;9260;49.998;19.880;2023-07-09T12:04:25;40.70;80.50
18268;DHT22;9260;49.998;19.880;2023-07-09T12:14:34;37.20;1.00
18268;DHT22;9260;49.998;19.880;2023-07-09T12:24:39;35.40;81.40
18268;DHT22;9260;49.998;19.880;2023-07-09T12:54:58;34.10;83.90
18268;DHT22;9260;49.998;19.880;2023-07-09T13:05:03;33.60;88.50
18268;DHT22;9260;49.998;19.880;2023-07-09T13:15:20;33.20;93.90
18268;DHT22;9260;49.998;19.880;2023-07-09T13:35:49;33.00;96.50
18268;DHT22;9260;49.998;19.880;2023-07-09T13:45:55;32.30;96.20
18268;DHT22;9260;49.998;19.880;2023-07-09T14:16:10;30.80;99.90
18268;DHT22;9260;49.998;19.880;2023-07-09T14:26:14;31.10;99.90
18268;DHT22;9260;49.998;19.880;2023-07-09T14:36:19;30.40;99.90
18268;DHT22;9260;49.998;19.880;2023-07-09T14:46:22;29.60;9.80
18268;DHT22;9260;49.998;19.880;2023-07-09T14:56:27;29.70;98.90
18268;DHT22;9260;49.998;19.880;2023-07-09T15:06:32;29.20;99.90
18268;DHT22;9260;49.998;19.880;2023-07-09T15:26:41;27.90;99.90
18268;DHT22;9260;49.998;19.880;2023-07-09T15:56:57;28.60;99.90
18268;DHT22;9260;49.998;19.880;2023-07-09T16:17:09;27.10;99.90
18268;DHT22;9260;49.998;19.880;2023-07-09T16:27:14;26.70;99.90
18268;DHT22;9260;49.998;19.880;2023-07-09T16:37:20;26.20;99.90
18268;DHT22;9260;49.998;19.880;2023-07-09T16:47:25;25.90;99.90
18268;DHT22;9260;49.998;19.880;2023-07-09T16:57:31;25.90;99.90
18268;DHT22;9260;49.998;19.880;2023-07-09T17:07:34;26.30;99.90
18268;DHT22;9260;49.998;19.880;2023-07-09T17:17:39;26.20;95.10
18268;DHT22;9260;49.998;19.880;2023-07-09T17:27:43;25.30;99.90
18268;DHT22;9260;49.998;19.880;2023-07-09T17:47:53;24.20;64.40
18268;DHT22;9260;49.998;19.880;2023-07-09T18:08:03;23.00;99.90
18268;DHT22;9260;49.998;19.880;2023-07-09T18:18:10;22.00;68.30
18268;DHT22;9260;49.998;19.880;2023-07-09T18:28:17;21.30;99.90
18268;DHT22;9260;49.998;19.880;2023-07-09T18:38:32;20.40;99.90
18268;DHT22;9260;49.998;19.880;2023-07-09T18:48:35;19.70;99.90
18268;DHT22;9260;49.998;19.880;2023-07-09T18:58:40;18.80;99.90
18268;DHT22;9260;49.998;19.880;2023-07-09T19:08:44;18.40;99.90
18268;DHT22;9260;49.998;19.880;2023-07-09T19:18:49;17.70;99.90
18268;DHT22;9260;49.998;19.880;2023-07-09T19:28:52;17.40;99.90
18268;DHT22;9260;49.998;19.880;2023-07-09T19:49:01;16.40;99.90
18268;DHT22;9260;49.998;19.880;2023-07-09T19:59:06;16.10;99.90
18268;DHT22;9260;49.998;19.880;2023-07-09T20:09:13;15.60;99.90
18268;DHT22;9260;49.998;19.880;2023-07-09T20:19:18;15.20;99.90
18268;DHT22;9260;49.998;19.880;2023-07-09T20:49:38;14.50;99.90
18268;DHT22;9260;49.998;19.880;2023-07-09T20:59:43;14.30;99.90
18268;DHT22;9260;49.998;19.880;2023-07-09T21:19:54;13.50;99.90
18268;DHT22;9260;49.998;19.880;2023-07-09T21:29:58;13.40;99.90
18268;DHT22;9260;49.998;19.880;2023-07-09T21:40:07;13.10;99.90
18268;DHT22;9260;49.998;19.880;2023-07-09T22:01:02;12.80;99.90
18268;DHT22;9260;49.998;19.880;2023-07-09T22:21:17;12.40;99.90
18268;DHT22;9260;49.998;19.880;2023-07-09T22:31:20;12.20;99.90
18268;DHT22;9260;49.998;19.880;2023-07-09T22:41:25;12.20;99.90
18268;DHT22;9260;49.998;19.880;2023-07-09T22:51:29;11.80;99.90
18268;DHT22;9260;49.998;19.880;2023-07-09T23:01:36;11.80;99.90
18268;DHT22;9260;49.998;19.880;2023-07-09T23:11:40;11.60;99.90
18268;DHT22;9260;49.998;19.880;2023-07-09T23:21:46;11.40;99.90
18268;DHT22;9260;49.998;19.880;2023-07-09T23:31:50;11.20;99.90
18268;DHT22;9260;49.998;19.880;2023-07-09T23:41:55;11.30;99.90
18268;DHT22;9260;49.998;19.880;2023-07-09T23:51:59;11.20;99.90
